CheckWX is a tool to help pilots better visualize weather data.  It is not intended as a substitute for an official pre-flight weather briefing.

06:46:12 UTC

LFRG TAF
Deauville-Saint-Gatien Airport
Deauville, France
TAF LFRG 160500Z 1606/1615 20010KT 9999 BKN025 TEMPO 1606/1611 4000 SHRA BKN012 TEMPO 1611/1615 5000 SHRA

Jun-16@
06:00 UTC

Jun-16 @ 06:00 UTC

Jun-16@
15:00 UTC

Jun-16 @ 15:00 UTC

TAF LFRG 160500Z 1606/1615 20010KT 9999 BKN025
Wind
  • 200° at 10 KTS
Cloud Levels
  • Broken at 2,500' AGL

Jun-16@
06:00 UTC

Jun-16 @ 06:00 UTC

Jun-16@
11:00 UTC

Jun-16 @ 11:00 UTC

TEMPO 1606/1611 4000 SHRA BKN012

Temporary

Temporary Changes expected for less than half the time period

Conditions
Rain
Cloud Levels
  • Broken at 1,200' AGL

Jun-16@
11:00 UTC

Jun-16 @ 11:00 UTC

Jun-16@
15:00 UTC

Jun-16 @ 15:00 UTC

TEMPO 1611/1615 5000 SHRA

Temporary

Temporary Changes expected for less than half the time period

Conditions
Rain